Main page
METAR-TAF:

METAR-TAF

Airports :

Payerne Air Base

Payerne, Switzerland

latitude: 46-49N, longitude: 006-57E, elevation: 490 m

Current weather observation

The report was made 25 minutes ago, at 15:50 UTC
Wind 4 kt from the North, varying between Northwest and Northeast
Temperature 16°C
Humidity 36%
Pressure 1020 hPa
Visibility 10 km or more

METAR: LSMP 041550Z AUTO 36004KT 320V040 9999NDV NCD 16/01 Q1020 RMK

Time: 18:15 (16:15 UTC)


TAF: missing

Weather observations and forecasts of more than 4000 airports (METAR and TAF reports).

The available stations are represented by yellow and red dots on the map.

Hover mouse over dot to see the name of the station.

Then click to see weather observations and forecasts.

To change the map : click on the green buttons with a black cross to zoom in, on the green button with a dash to zoom out, or on the green arrows for adjacent maps.


METAR-TAF: